Terminal Aerodrome Forecast
Issued by NWS Grand Forks, ND

Home | Current Version | Previous Version | Text Only | Print | Product List | Glossary Off
Versions: 1 2 3 4 5 6 7 8 9 10 11 12 13 14 15 16 17 18 19 20

308
FTUS43 KFGF 192327
TAFFAR
TAF
KFAR 192327Z 2000/2024 14016G24KT P6SM SCT200
     FM200400 15014KT P6SM BKN200
     FM201300 17014KT 3SM BR VCSH OVC012
     FM201700 23009KT P6SM OVC008
     FM201900 25010KT P6SM BKN035
     FM202100 27013G21KT P6SM SCT080=

USA.gov is the U.S. government's official web portal to all federal, state and local government web resources and services.